sensor_id;sensor_type;location;lat;lon;timestamp;P1;durP1;ratioP1;P2;durP2;ratioP2
72493;SDS011;60520;49.182;-0.348;2024-03-02T00:01:36;2.40;;;0.80;;
72493;SDS011;60520;49.182;-0.348;2024-03-02T00:04:03;1.92;;;0.70;;
72493;SDS011;60520;49.182;-0.348;2024-03-02T00:06:31;1.13;;;0.60;;
72493;SDS011;60520;49.182;-0.348;2024-03-02T00:09:00;1.75;;;0.77;;
72493;SDS011;60520;49.182;-0.348;2024-03-02T00:11:27;1.48;;;0.70;;
72493;SDS011;60520;49.182;-0.348;2024-03-02T00:13:54;2.47;;;0.85;;
72493;SDS011;60520;49.182;-0.348;2024-03-02T00:16:21;1.55;;;0.73;;
72493;SDS011;60520;49.182;-0.348;2024-03-02T00:18:49;2.58;;;0.60;;
72493;SDS011;60520;49.182;-0.348;2024-03-02T00:21:16;2.83;;;0.77;;
72493;SDS011;60520;49.182;-0.348;2024-03-02T00:23:46;2.53;;;0.63;;
72493;SDS011;60520;49.182;-0.348;2024-03-02T00:26:18;3.28;;;0.75;;
72493;SDS011;60520;49.182;-0.348;2024-03-02T00:28:45;2.42;;;0.80;;
72493;SDS011;60520;49.182;-0.348;2024-03-02T00:31:15;1.48;;;0.70;;
72493;SDS011;60520;49.182;-0.348;2024-03-02T00:33:43;1.83;;;0.57;;
72493;SDS011;60520;49.182;-0.348;2024-03-02T00:36:11;1.83;;;0.80;;
72493;SDS011;60520;49.182;-0.348;2024-03-02T00:38:45;1.60;;;0.70;;
72493;SDS011;60520;49.182;-0.348;2024-03-02T00:41:16;1.63;;;0.60;;
72493;SDS011;60520;49.182;-0.348;2024-03-02T00:43:47;1.92;;;0.82;;
72493;SDS011;60520;49.182;-0.348;2024-03-02T00:46:18;1.42;;;0.60;;
72493;SDS011;60520;49.182;-0.348;2024-03-02T00:48:55;2.10;;;0.60;;
72493;SDS011;60520;49.182;-0.348;2024-03-02T00:51:23;3.80;;;1.00;;
72493;SDS011;60520;49.182;-0.348;2024-03-02T00:53:50;1.65;;;0.65;;
72493;SDS011;60520;49.182;-0.348;2024-03-02T00:56:20;1.13;;;0.50;;
72493;SDS011;60520;49.182;-0.348;2024-03-02T00:58:49;2.03;;;0.70;;
72493;SDS011;60520;49.182;-0.348;2024-03-02T01:01:16;1.95;;;0.80;;
72493;SDS011;60520;49.182;-0.348;2024-03-02T01:03:43;1.45;;;0.60;;
72493;SDS011;60520;49.182;-0.348;2024-03-02T01:06:10;1.63;;;0.60;;
72493;SDS011;60520;49.182;-0.348;2024-03-02T01:08:37;2.78;;;0.68;;
72493;SDS011;60520;49.182;-0.348;2024-03-02T01:11:05;1.63;;;0.63;;
72493;SDS011;60520;49.182;-0.348;2024-03-02T01:13:32;1.98;;;0.75;;
72493;SDS011;60520;49.182;-0.348;2024-03-02T01:16:01;4.43;;;0.70;;
72493;SDS011;60520;49.182;-0.348;2024-03-02T01:18:29;1.77;;;0.80;;
72493;SDS011;60520;49.182;-0.348;2024-03-02T01:20:56;2.45;;;0.82;;
72493;SDS011;60520;49.182;-0.348;2024-03-02T01:23:24;1.00;;;0.50;;
72493;SDS011;60520;49.182;-0.348;2024-03-02T01:25:51;1.92;;;0.80;;
72493;SDS011;60520;49.182;-0.348;2024-03-02T01:28:18;2.88;;;0.85;;
72493;SDS011;60520;49.182;-0.348;2024-03-02T01:30:46;1.65;;;0.73;;
72493;SDS011;60520;49.182;-0.348;2024-03-02T01:33:16;1.77;;;0.80;;
72493;SDS011;60520;49.182;-0.348;2024-03-02T01:35:43;2.95;;;0.80;;
72493;SDS011;60520;49.182;-0.348;2024-03-02T01:38:11;1.88;;;0.70;;
72493;SDS011;60520;49.182;-0.348;2024-03-02T01:40:38;0.90;;;0.50;;
72493;SDS011;60520;49.182;-0.348;2024-03-02T01:43:05;1.25;;;0.60;;
72493;SDS011;60520;49.182;-0.348;2024-03-02T01:45:32;1.65;;;0.70;;
72493;SDS011;60520;49.182;-0.348;2024-03-02T01:48:00;2.53;;;0.77;;
72493;SDS011;60520;49.182;-0.348;2024-03-02T01:50:29;1.27;;;0.47;;
72493;SDS011;60520;49.182;-0.348;2024-03-02T01:52:58;1.45;;;0.50;;
72493;SDS011;60520;49.182;-0.348;2024-03-02T01:55:25;2.00;;;0.68;;
72493;SDS011;60520;49.182;-0.348;2024-03-02T01:57:54;3.25;;;0.80;;
72493;SDS011;60520;49.182;-0.348;2024-03-02T02:00:21;1.75;;;0.63;;
72493;SDS011;60520;49.182;-0.348;2024-03-02T02:02:49;1.63;;;0.60;;
72493;SDS011;60520;49.182;-0.348;2024-03-02T02:05:17;1.30;;;0.60;;
72493;SDS011;60520;49.182;-0.348;2024-03-02T02:07:45;1.67;;;0.63;;
72493;SDS011;60520;49.182;-0.348;2024-03-02T02:10:13;2.08;;;0.73;;
72493;SDS011;60520;49.182;-0.348;2024-03-02T02:12:40;2.47;;;0.90;;
72493;SDS011;60520;49.182;-0.348;2024-03-02T02:15:21;2.08;;;0.80;;
72493;SDS011;60520;49.182;-0.348;2024-03-02T02:17:48;1.80;;;0.55;;
72493;SDS011;60520;49.182;-0.348;2024-03-02T02:20:15;1.55;;;0.70;;
72493;SDS011;60520;49.182;-0.348;2024-03-02T02:22:53;1.02;;;0.55;;
72493;SDS011;60520;49.182;-0.348;2024-03-02T02:25:21;2.13;;;0.75;;
72493;SDS011;60520;49.182;-0.348;2024-03-02T02:27:48;2.65;;;0.88;;
72493;SDS011;60520;49.182;-0.348;2024-03-02T02:30:18;1.10;;;0.70;;
72493;SDS011;60520;49.182;-0.348;2024-03-02T02:32:45;2.80;;;0.90;;
72493;SDS011;60520;49.182;-0.348;2024-03-02T02:35:12;1.95;;;0.73;;
72493;SDS011;60520;49.182;-0.348;2024-03-02T02:37:39;3.97;;;0.60;;
72493;SDS011;60520;49.182;-0.348;2024-03-02T02:40:09;1.77;;;0.60;;
72493;SDS011;60520;49.182;-0.348;2024-03-02T02:42:36;2.03;;;0.70;;
72493;SDS011;60520;49.182;-0.348;2024-03-02T02:45:03;2.75;;;0.60;;
72493;SDS011;60520;49.182;-0.348;2024-03-02T02:47:31;1.17;;;0.55;;
72493;SDS011;60520;49.182;-0.348;2024-03-02T02:50:00;2.20;;;0.73;;
72493;SDS011;60520;49.182;-0.348;2024-03-02T02:52:30;2.45;;;0.80;;
72493;SDS011;60520;49.182;-0.348;2024-03-02T02:54:58;1.50;;;0.70;;
72493;SDS011;60520;49.182;-0.348;2024-03-02T02:57:27;2.10;;;0.80;;
72493;SDS011;60520;49.182;-0.348;2024-03-02T02:59:56;2.42;;;0.80;;
72493;SDS011;60520;49.182;-0.348;2024-03-02T03:02:23;2.70;;;0.90;;
72493;SDS011;60520;49.182;-0.348;2024-03-02T03:04:50;0.88;;;0.50;;
72493;SDS011;60520;49.182;-0.348;2024-03-02T03:07:17;1.75;;;0.70;;
72493;SDS011;60520;49.182;-0.348;2024-03-02T03:09:44;1.35;;;0.60;;
72493;SDS011;60520;49.182;-0.348;2024-03-02T03:12:11;4.93;;;0.70;;
72493;SDS011;60520;49.182;-0.348;2024-03-02T03:14:41;2.33;;;0.70;;
72493;SDS011;60520;49.182;-0.348;2024-03-02T03:17:08;2.20;;;0.70;;
72493;SDS011;60520;49.182;-0.348;2024-03-02T03:19:35;1.52;;;0.68;;
72493;SDS011;60520;49.182;-0.348;2024-03-02T03:22:04;2.45;;;0.80;;
72493;SDS011;60520;49.182;-0.348;2024-03-02T03:24:32;2.38;;;0.85;;
72493;SDS011;60520;49.182;-0.348;2024-03-02T03:26:59;1.60;;;0.50;;
72493;SDS011;60520;49.182;-0.348;2024-03-02T03:29:26;1.15;;;0.55;;
72493;SDS011;60520;49.182;-0.348;2024-03-02T03:31:54;1.83;;;0.70;;
72493;SDS011;60520;49.182;-0.348;2024-03-02T03:34:21;2.03;;;0.80;;
72493;SDS011;60520;49.182;-0.348;2024-03-02T03:36:49;1.35;;;0.73;;
72493;SDS011;60520;49.182;-0.348;2024-03-02T03:39:16;1.20;;;0.60;;
72493;SDS011;60520;49.182;-0.348;2024-03-02T03:41:43;3.15;;;0.80;;
72493;SDS011;60520;49.182;-0.348;2024-03-02T03:44:10;2.38;;;0.70;;
72493;SDS011;60520;49.182;-0.348;2024-03-02T03:46:38;2.50;;;0.80;;
72493;SDS011;60520;49.182;-0.348;2024-03-02T03:49:06;2.17;;;0.70;;
72493;SDS011;60520;49.182;-0.348;2024-03-02T03:51:33;1.58;;;0.52;;
72493;SDS011;60520;49.182;-0.348;2024-03-02T03:54:01;1.52;;;0.40;;
72493;SDS011;60520;49.182;-0.348;2024-03-02T03:56:28;1.25;;;0.60;;
72493;SDS011;60520;49.182;-0.348;2024-03-02T03:58:55;1.35;;;0.50;;
72493;SDS011;60520;49.182;-0.348;2024-03-02T04:01:22;1.73;;;0.77;;
72493;SDS011;60520;49.182;-0.348;2024-03-02T04:03:49;2.10;;;0.82;;
72493;SDS011;60520;49.182;-0.348;2024-03-02T04:06:18;2.65;;;0.70;;
72493;SDS011;60520;49.182;-0.348;2024-03-02T04:08:45;1.05;;;0.40;;
72493;SDS011;60520;49.182;-0.348;2024-03-02T04:11:12;2.63;;;0.73;;
72493;SDS011;60520;49.182;-0.348;2024-03-02T04:13:39;2.35;;;0.70;;
72493;SDS011;60520;49.182;-0.348;2024-03-02T04:16:06;1.73;;;0.60;;
72493;SDS011;60520;49.182;-0.348;2024-03-02T04:18:33;0.70;;;0.40;;
72493;SDS011;60520;49.182;-0.348;2024-03-02T04:21:02;2.03;;;0.70;;
72493;SDS011;60520;49.182;-0.348;2024-03-02T04:23:31;2.42;;;0.82;;
72493;SDS011;60520;49.182;-0.348;2024-03-02T04:25:58;2.25;;;0.60;;
72493;SDS011;60520;49.182;-0.348;2024-03-02T04:28:25;1.90;;;0.73;;
72493;SDS011;60520;49.182;-0.348;2024-03-02T04:30:52;2.03;;;0.70;;
72493;SDS011;60520;49.182;-0.348;2024-03-02T04:33:19;2.00;;;0.60;;
72493;SDS011;60520;49.182;-0.348;2024-03-02T04:35:47;1.90;;;0.80;;
72493;SDS011;60520;49.182;-0.348;2024-03-02T04:38:14;2.83;;;0.85;;
72493;SDS011;60520;49.182;-0.348;2024-03-02T04:40:42;4.05;;;0.80;;
72493;SDS011;60520;49.182;-0.348;2024-03-02T04:43:09;2.05;;;0.70;;
72493;SDS011;60520;49.182;-0.348;2024-03-02T04:45:40;2.30;;;0.60;;
72493;SDS011;60520;49.182;-0.348;2024-03-02T04:48:08;2.28;;;0.63;;
72493;SDS011;60520;49.182;-0.348;2024-03-02T04:50:35;1.80;;;0.70;;
72493;SDS011;60520;49.182;-0.348;2024-03-02T04:53:03;1.70;;;0.80;;
72493;SDS011;60520;49.182;-0.348;2024-03-02T04:55:30;1.80;;;0.73;;
72493;SDS011;60520;49.182;-0.348;2024-03-02T04:58:12;1.40;;;0.50;;
72493;SDS011;60520;49.182;-0.348;2024-03-02T05:00:39;3.15;;;0.70;;
72493;SDS011;60520;49.182;-0.348;2024-03-02T05:03:07;2.05;;;0.70;;
72493;SDS011;60520;49.182;-0.348;2024-03-02T05:05:34;2.30;;;0.50;;
72493;SDS011;60520;49.182;-0.348;2024-03-02T05:08:03;1.73;;;0.73;;
72493;SDS011;60520;49.182;-0.348;2024-03-02T05:10:31;1.95;;;0.63;;
72493;SDS011;60520;49.182;-0.348;2024-03-02T05:12:58;2.92;;;0.80;;
72493;SDS011;60520;49.182;-0.348;2024-03-02T05:15:26;1.33;;;0.50;;
72493;SDS011;60520;49.182;-0.348;2024-03-02T05:17:53;1.83;;;0.77;;
72493;SDS011;60520;49.182;-0.348;2024-03-02T05:20:22;2.63;;;0.60;;
72493;SDS011;60520;49.182;-0.348;2024-03-02T05:22:49;2.05;;;0.60;;
72493;SDS011;60520;49.182;-0.348;2024-03-02T05:25:16;1.02;;;0.50;;
72493;SDS011;60520;49.182;-0.348;2024-03-02T05:27:43;1.13;;;0.60;;
72493;SDS011;60520;49.182;-0.348;2024-03-02T05:30:11;1.77;;;0.73;;
72493;SDS011;60520;49.182;-0.348;2024-03-02T05:32:40;2.63;;;0.70;;
72493;SDS011;60520;49.182;-0.348;2024-03-02T05:35:07;2.88;;;0.70;;
72493;SDS011;60520;49.182;-0.348;2024-03-02T05:37:36;2.45;;;0.80;;
72493;SDS011;60520;49.182;-0.348;2024-03-02T05:40:04;1.42;;;0.60;;
72493;SDS011;60520;49.182;-0.348;2024-03-02T05:42:32;1.30;;;0.50;;
72493;SDS011;60520;49.182;-0.348;2024-03-02T05:44:59;3.33;;;0.77;;
72493;SDS011;60520;49.182;-0.348;2024-03-02T05:47:26;1.58;;;0.52;;
72493;SDS011;60520;49.182;-0.348;2024-03-02T05:49:55;2.83;;;0.82;;
72493;SDS011;60520;49.182;-0.348;2024-03-02T05:52:22;2.53;;;0.75;;
72493;SDS011;60520;49.182;-0.348;2024-03-02T05:54:49;1.75;;;0.50;;
72493;SDS011;60520;49.182;-0.348;2024-03-02T05:57:16;2.78;;;0.70;;
72493;SDS011;60520;49.182;-0.348;2024-03-02T05:59:57;1.33;;;0.50;;
72493;SDS011;60520;49.182;-0.348;2024-03-02T06:02:25;2.75;;;0.70;;
72493;SDS011;60520;49.182;-0.348;2024-03-02T06:04:53;2.80;;;0.70;;
72493;SDS011;60520;49.182;-0.348;2024-03-02T06:07:22;1.23;;;0.40;;
72493;SDS011;60520;49.182;-0.348;2024-03-02T06:09:49;1.23;;;0.60;;
72493;SDS011;60520;49.182;-0.348;2024-03-02T06:12:17;1.67;;;0.50;;
72493;SDS011;60520;49.182;-0.348;2024-03-02T06:14:44;2.00;;;0.63;;
72493;SDS011;60520;49.182;-0.348;2024-03-02T06:17:12;2.00;;;0.50;;
72493;SDS011;60520;49.182;-0.348;2024-03-02T06:19:39;1.73;;;0.50;;
72493;SDS011;60520;49.182;-0.348;2024-03-02T06:22:06;2.13;;;0.75;;
72493;SDS011;60520;49.182;-0.348;2024-03-02T06:24:37;2.97;;;0.70;;
72493;SDS011;60520;49.182;-0.348;2024-03-02T06:27:04;1.67;;;0.65;;
72493;SDS011;60520;49.182;-0.348;2024-03-02T06:29:32;1.45;;;0.50;;
72493;SDS011;60520;49.182;-0.348;2024-03-02T06:31:59;1.77;;;0.60;;
72493;SDS011;60520;49.182;-0.348;2024-03-02T06:34:27;1.63;;;0.60;;
72493;SDS011;60520;49.182;-0.348;2024-03-02T06:36:54;2.08;;;0.60;;
72493;SDS011;60520;49.182;-0.348;2024-03-02T06:39:21;1.85;;;0.40;;
72493;SDS011;60520;49.182;-0.348;2024-03-02T06:41:49;1.58;;;0.50;;
72493;SDS011;60520;49.182;-0.348;2024-03-02T06:44:16;0.98;;;0.47;;
72493;SDS011;60520;49.182;-0.348;2024-03-02T06:46:43;2.10;;;0.60;;
72493;SDS011;60520;49.182;-0.348;2024-03-02T06:49:11;1.92;;;0.55;;
72493;SDS011;60520;49.182;-0.348;2024-03-02T06:51:38;2.63;;;0.60;;
72493;SDS011;60520;49.182;-0.348;2024-03-02T06:54:07;1.88;;;0.60;;
72493;SDS011;60520;49.182;-0.348;2024-03-02T06:56:34;1.15;;;0.55;;
72493;SDS011;60520;49.182;-0.348;2024-03-02T06:59:04;2.60;;;0.60;;
72493;SDS011;60520;49.182;-0.348;2024-03-02T07:01:31;1.77;;;0.50;;
72493;SDS011;60520;49.182;-0.348;2024-03-02T07:03:58;2.10;;;0.65;;
72493;SDS011;60520;49.182;-0.348;2024-03-02T07:06:25;2.80;;;0.80;;
72493;SDS011;60520;49.182;-0.348;2024-03-02T07:08:52;2.45;;;0.80;;
72493;SDS011;60520;49.182;-0.348;2024-03-02T07:11:19;1.45;;;0.50;;
72493;SDS011;60520;49.182;-0.348;2024-03-02T07:13:46;1.15;;;0.45;;
72493;SDS011;60520;49.182;-0.348;2024-03-02T07:16:15;2.53;;;0.77;;
72493;SDS011;60520;49.182;-0.348;2024-03-02T07:18:52;1.67;;;0.57;;
72493;SDS011;60520;49.182;-0.348;2024-03-02T07:21:21;1.48;;;0.43;;
72493;SDS011;60520;49.182;-0.348;2024-03-02T07:23:48;1.77;;;0.50;;
72493;SDS011;60520;49.182;-0.348;2024-03-02T07:26:15;2.15;;;0.60;;
72493;SDS011;60520;49.182;-0.348;2024-03-02T07:28:44;2.10;;;0.55;;
72493;SDS011;60520;49.182;-0.348;2024-03-02T07:31:11;1.10;;;0.40;;
72493;SDS011;60520;49.182;-0.348;2024-03-02T07:33:39;1.67;;;0.68;;
72493;SDS011;60520;49.182;-0.348;2024-03-02T07:36:07;3.47;;;0.70;;
72493;SDS011;60520;49.182;-0.348;2024-03-02T07:38:33;2.85;;;0.57;;
72493;SDS011;60520;49.182;-0.348;2024-03-02T07:41:00;2.60;;;0.60;;
72493;SDS011;60520;49.182;-0.348;2024-03-02T07:43:27;2.55;;;0.50;;
72493;SDS011;60520;49.182;-0.348;2024-03-02T07:45:55;2.00;;;0.50;;
72493;SDS011;60520;49.182;-0.348;2024-03-02T07:48:22;2.30;;;0.70;;
72493;SDS011;60520;49.182;-0.348;2024-03-02T07:50:51;2.28;;;0.70;;
72493;SDS011;60520;49.182;-0.348;2024-03-02T07:53:18;1.77;;;0.68;;
72493;SDS011;60520;49.182;-0.348;2024-03-02T07:55:45;1.52;;;0.60;;
72493;SDS011;60520;49.182;-0.348;2024-03-02T07:58:13;2.13;;;0.50;;
72493;SDS011;60520;49.182;-0.348;2024-03-02T08:00:40;1.33;;;0.60;;
72493;SDS011;60520;49.182;-0.348;2024-03-02T08:03:07;1.10;;;0.47;;
72493;SDS011;60520;49.182;-0.348;2024-03-02T08:05:36;1.48;;;0.52;;
72493;SDS011;60520;49.182;-0.348;2024-03-02T08:08:05;0.88;;;0.47;;
72493;SDS011;60520;49.182;-0.348;2024-03-02T08:10:32;2.17;;;0.60;;
72493;SDS011;60520;49.182;-0.348;2024-03-02T08:12:59;1.52;;;0.50;;
72493;SDS011;60520;49.182;-0.348;2024-03-02T08:15:26;1.63;;;0.50;;
72493;SDS011;60520;49.182;-0.348;2024-03-02T08:17:54;1.17;;;0.43;;
72493;SDS011;60520;49.182;-0.348;2024-03-02T08:20:21;3.22;;;0.63;;
72493;SDS011;60520;49.182;-0.348;2024-03-02T08:22:48;2.22;;;0.80;;
72493;SDS011;60520;49.182;-0.348;2024-03-02T08:25:17;2.13;;;0.60;;
72493;SDS011;60520;49.182;-0.348;2024-03-02T08:27:44;2.10;;;0.52;;
72493;SDS011;60520;49.182;-0.348;2024-03-02T08:30:12;1.80;;;0.63;;
72493;SDS011;60520;49.182;-0.348;2024-03-02T08:32:39;0.98;;;0.40;;
72493;SDS011;60520;49.182;-0.348;2024-03-02T08:35:06;0.93;;;0.40;;
72493;SDS011;60520;49.182;-0.348;2024-03-02T08:37:33;2.53;;;0.50;;
72493;SDS011;60520;49.182;-0.348;2024-03-02T08:40:01;11.63;;;0.80;;
72493;SDS011;60520;49.182;-0.348;2024-03-02T08:42:30;2.28;;;0.57;;
72493;SDS011;60520;49.182;-0.348;2024-03-02T08:44:57;4.88;;;0.90;;
72493;SDS011;60520;49.182;-0.348;2024-03-02T08:47:27;3.40;;;0.70;;
72493;SDS011;60520;49.182;-0.348;2024-03-02T08:49:54;4.82;;;0.68;;
72493;SDS011;60520;49.182;-0.348;2024-03-02T08:52:21;2.85;;;0.80;;
72493;SDS011;60520;49.182;-0.348;2024-03-02T08:54:48;2.22;;;0.80;;
72493;SDS011;60520;49.182;-0.348;2024-03-02T08:57:15;3.53;;;0.82;;
72493;SDS011;60520;49.182;-0.348;2024-03-02T08:59:44;2.50;;;0.70;;
72493;SDS011;60520;49.182;-0.348;2024-03-02T09:02:11;3.30;;;1.02;;
72493;SDS011;60520;49.182;-0.348;2024-03-02T09:04:38;4.65;;;1.00;;
72493;SDS011;60520;49.182;-0.348;2024-03-02T09:07:05;2.40;;;0.77;;
72493;SDS011;60520;49.182;-0.348;2024-03-02T09:09:33;4.90;;;1.00;;
72493;SDS011;60520;49.182;-0.348;2024-03-02T09:12:00;2.20;;;0.70;;
72493;SDS011;60520;49.182;-0.348;2024-03-02T09:14:27;3.17;;;1.10;;
72493;SDS011;60520;49.182;-0.348;2024-03-02T09:16:56;5.05;;;0.93;;
72493;SDS011;60520;49.182;-0.348;2024-03-02T09:19:23;2.80;;;0.80;;
72493;SDS011;60520;49.182;-0.348;2024-03-02T09:21:50;4.82;;;1.10;;
72493;SDS011;60520;49.182;-0.348;2024-03-02T09:24:17;1.83;;;0.85;;
72493;SDS011;60520;49.182;-0.348;2024-03-02T09:26:44;2.72;;;0.95;;
72493;SDS011;60520;49.182;-0.348;2024-03-02T09:29:11;2.13;;;0.93;;
72493;SDS011;60520;49.182;-0.348;2024-03-02T09:31:39;3.60;;;0.90;;
72493;SDS011;60520;49.182;-0.348;2024-03-02T09:34:08;4.15;;;1.00;;
72493;SDS011;60520;49.182;-0.348;2024-03-02T09:36:35;3.05;;;0.82;;
72493;SDS011;60520;49.182;-0.348;2024-03-02T09:39:02;5.90;;;1.10;;
72493;SDS011;60520;49.182;-0.348;2024-03-02T09:41:29;2.65;;;1.00;;
72493;SDS011;60520;49.182;-0.348;2024-03-02T09:43:57;5.78;;;0.88;;
72493;SDS011;60520;49.182;-0.348;2024-03-02T09:46:24;2.92;;;0.88;;
72493;SDS011;60520;49.182;-0.348;2024-03-02T09:48:51;3.58;;;0.70;;
72493;SDS011;60520;49.182;-0.348;2024-03-02T09:51:20;3.38;;;0.90;;
72493;SDS011;60520;49.182;-0.348;2024-03-02T09:53:47;5.93;;;1.20;;
72493;SDS011;60520;49.182;-0.348;2024-03-02T09:56:14;3.58;;;1.20;;
72493;SDS011;60520;49.182;-0.348;2024-03-02T09:58:43;4.72;;;1.10;;
72493;SDS011;60520;49.182;-0.348;2024-03-02T10:01:10;3.03;;;0.80;;
72493;SDS011;60520;49.182;-0.348;2024-03-02T10:03:37;3.35;;;0.80;;
72493;SDS011;60520;49.182;-0.348;2024-03-02T10:06:22;3.85;;;0.90;;
72493;SDS011;60520;49.182;-0.348;2024-03-02T10:08:50;5.70;;;0.90;;
72493;SDS011;60520;49.182;-0.348;2024-03-02T10:11:27;6.28;;;0.90;;
72493;SDS011;60520;49.182;-0.348;2024-03-02T10:14:07;4.18;;;1.10;;
72493;SDS011;60520;49.182;-0.348;2024-03-02T10:16:35;5.88;;;1.15;;
72493;SDS011;60520;49.182;-0.348;2024-03-02T10:19:16;3.90;;;1.15;;
72493;SDS011;60520;49.182;-0.348;2024-03-02T10:21:45;6.88;;;0.90;;
72493;SDS011;60520;49.182;-0.348;2024-03-02T10:24:12;4.45;;;1.33;;
72493;SDS011;60520;49.182;-0.348;2024-03-02T10:26:39;4.22;;;1.20;;
72493;SDS011;60520;49.182;-0.348;2024-03-02T10:29:08;4.00;;;1.30;;
72493;SDS011;60520;49.182;-0.348;2024-03-02T10:31:36;6.10;;;1.15;;
72493;SDS011;60520;49.182;-0.348;2024-03-02T10:34:03;8.75;;;1.30;;
72493;SDS011;60520;49.182;-0.348;2024-03-02T10:36:31;4.32;;;1.27;;
72493;SDS011;60520;49.182;-0.348;2024-03-02T10:39:00;5.63;;;1.70;;
72493;SDS011;60520;49.182;-0.348;2024-03-02T10:41:29;5.93;;;1.30;;
72493;SDS011;60520;49.182;-0.348;2024-03-02T10:43:59;3.08;;;1.42;;
72493;SDS011;60520;49.182;-0.348;2024-03-02T10:46:26;7.15;;;1.30;;
72493;SDS011;60520;49.182;-0.348;2024-03-02T10:48:55;7.82;;;1.63;;
72493;SDS011;60520;49.182;-0.348;2024-03-02T10:51:24;5.65;;;1.90;;
72493;SDS011;60520;49.182;-0.348;2024-03-02T10:53:52;4.38;;;1.63;;
72493;SDS011;60520;49.182;-0.348;2024-03-02T10:56:23;8.88;;;1.90;;
72493;SDS011;60520;49.182;-0.348;2024-03-02T10:58:53;10.40;;;2.25;;
72493;SDS011;60520;49.182;-0.348;2024-03-02T11:01:22;5.43;;;2.10;;
72493;SDS011;60520;49.182;-0.348;2024-03-02T11:03:50;6.10;;;1.98;;
72493;SDS011;60520;49.182;-0.348;2024-03-02T11:06:17;3.60;;;1.63;;
72493;SDS011;60520;49.182;-0.348;2024-03-02T11:08:44;8.13;;;2.15;;
72493;SDS011;60520;49.182;-0.348;2024-03-02T11:11:15;5.97;;;2.17;;
72493;SDS011;60520;49.182;-0.348;2024-03-02T11:13:46;6.38;;;2.00;;
72493;SDS011;60520;49.182;-0.348;2024-03-02T11:16:16;3.42;;;1.75;;
72493;SDS011;60520;49.182;-0.348;2024-03-02T11:18:45;7.13;;;2.20;;
72493;SDS011;60520;49.182;-0.348;2024-03-02T11:21:14;6.75;;;1.85;;
72493;SDS011;60520;49.182;-0.348;2024-03-02T11:23:42;5.05;;;1.58;;
72493;SDS011;60520;49.182;-0.348;2024-03-02T11:26:18;5.50;;;2.00;;
72493;SDS011;60520;49.182;-0.348;2024-03-02T11:28:46;4.60;;;1.88;;
72493;SDS011;60520;49.182;-0.348;2024-03-02T11:31:14;4.15;;;1.70;;
72493;SDS011;60520;49.182;-0.348;2024-03-02T11:33:41;3.53;;;1.80;;
72493;SDS011;60520;49.182;-0.348;2024-03-02T11:36:08;7.25;;;1.80;;
72493;SDS011;60520;49.182;-0.348;2024-03-02T11:38:35;5.57;;;1.92;;
72493;SDS011;60520;49.182;-0.348;2024-03-02T11:41:05;6.32;;;1.73;;
72493;SDS011;60520;49.182;-0.348;2024-03-02T11:43:33;33.40;;;3.83;;
72493;SDS011;60520;49.182;-0.348;2024-03-02T11:46:06;10.85;;;2.10;;
72493;SDS011;60520;49.182;-0.348;2024-03-02T11:48:34;10.65;;;1.98;;
72493;SDS011;60520;49.182;-0.348;2024-03-02T11:51:03;10.93;;;2.10;;
72493;SDS011;60520;49.182;-0.348;2024-03-02T11:53:30;7.50;;;2.00;;
72493;SDS011;60520;49.182;-0.348;2024-03-02T11:55:58;4.28;;;1.70;;
72493;SDS011;60520;49.182;-0.348;2024-03-02T11:58:26;11.60;;;1.98;;
72493;SDS011;60520;49.182;-0.348;2024-03-02T12:00:54;6.45;;;1.60;;
72493;SDS011;60520;49.182;-0.348;2024-03-02T12:03:23;8.63;;;1.65;;
72493;SDS011;60520;49.182;-0.348;2024-03-02T12:05:52;9.05;;;2.17;;
72493;SDS011;60520;49.182;-0.348;2024-03-02T12:08:19;8.30;;;1.65;;
72493;SDS011;60520;49.182;-0.348;2024-03-02T12:10:57;4.75;;;1.70;;
72493;SDS011;60520;49.182;-0.348;2024-03-02T12:13:25;5.55;;;1.75;;
72493;SDS011;60520;49.182;-0.348;2024-03-02T12:15:53;8.18;;;1.77;;
72493;SDS011;60520;49.182;-0.348;2024-03-02T12:18:22;7.13;;;2.10;;
72493;SDS011;60520;49.182;-0.348;2024-03-02T12:20:50;7.38;;;1.90;;
72493;SDS011;60520;49.182;-0.348;2024-03-02T12:23:21;4.32;;;1.63;;
72493;SDS011;60520;49.182;-0.348;2024-03-02T12:25:48;5.05;;;1.70;;
72493;SDS011;60520;49.182;-0.348;2024-03-02T12:28:16;3.92;;;1.52;;
72493;SDS011;60520;49.182;-0.348;2024-03-02T12:30:43;6.10;;;1.77;;
72493;SDS011;60520;49.182;-0.348;2024-03-02T12:33:10;4.38;;;1.35;;
72493;SDS011;60520;49.182;-0.348;2024-03-02T12:35:39;7.40;;;1.58;;
72493;SDS011;60520;49.182;-0.348;2024-03-02T12:38:07;8.52;;;1.92;;
72493;SDS011;60520;49.182;-0.348;2024-03-02T12:40:35;7.88;;;1.50;;
72493;SDS011;60520;49.182;-0.348;2024-03-02T12:43:03;7.22;;;1.60;;
72493;SDS011;60520;49.182;-0.348;2024-03-02T12:45:32;24.40;;;2.65;;
72493;SDS011;60520;49.182;-0.348;2024-03-02T12:47:59;20.17;;;2.88;;
72493;SDS011;60520;49.182;-0.348;2024-03-02T12:50:27;78.90;;;4.35;;
72493;SDS011;60520;49.182;-0.348;2024-03-02T12:52:55;19.92;;;2.35;;
72493;SDS011;60520;49.182;-0.348;2024-03-02T12:55:23;8.35;;;1.75;;
72493;SDS011;60520;49.182;-0.348;2024-03-02T12:57:50;28.92;;;3.35;;
72493;SDS011;60520;49.182;-0.348;2024-03-02T13:00:18;23.23;;;2.75;;
72493;SDS011;60520;49.182;-0.348;2024-03-02T13:02:45;12.32;;;1.85;;
72493;SDS011;60520;49.182;-0.348;2024-03-02T13:05:13;19.00;;;2.30;;
72493;SDS011;60520;49.182;-0.348;2024-03-02T13:07:40;35.42;;;3.17;;
72493;SDS011;60520;49.182;-0.348;2024-03-02T13:10:08;25.35;;;2.70;;
72493;SDS011;60520;49.182;-0.348;2024-03-02T13:12:36;52.03;;;3.55;;
72493;SDS011;60520;49.182;-0.348;2024-03-02T13:15:03;15.00;;;2.50;;
72493;SDS011;60520;49.182;-0.348;2024-03-02T13:17:31;13.40;;;1.98;;
72493;SDS011;60520;49.182;-0.348;2024-03-02T13:19:59;16.52;;;2.30;;
72493;SDS011;60520;49.182;-0.348;2024-03-02T13:22:27;30.10;;;2.65;;
72493;SDS011;60520;49.182;-0.348;2024-03-02T13:24:54;12.63;;;1.98;;
72493;SDS011;60520;49.182;-0.348;2024-03-02T13:27:23;16.38;;;1.80;;
72493;SDS011;60520;49.182;-0.348;2024-03-02T13:29:50;12.90;;;1.80;;
72493;SDS011;60520;49.182;-0.348;2024-03-02T13:32:17;11.65;;;1.83;;
72493;SDS011;60520;49.182;-0.348;2024-03-02T13:34:48;17.35;;;2.33;;
72493;SDS011;60520;49.182;-0.348;2024-03-02T13:37:15;8.02;;;1.98;;
72493;SDS011;60520;49.182;-0.348;2024-03-02T13:39:43;12.10;;;2.03;;
72493;SDS011;60520;49.182;-0.348;2024-03-02T13:42:10;17.75;;;1.58;;
72493;SDS011;60520;49.182;-0.348;2024-03-02T13:44:42;10.63;;;1.73;;
72493;SDS011;60520;49.182;-0.348;2024-03-02T13:47:10;10.50;;;1.85;;
72493;SDS011;60520;49.182;-0.348;2024-03-02T13:49:37;11.35;;;1.83;;
72493;SDS011;60520;49.182;-0.348;2024-03-02T13:52:08;13.50;;;1.90;;
72493;SDS011;60520;49.182;-0.348;2024-03-02T13:54:38;6.78;;;1.60;;
72493;SDS011;60520;49.182;-0.348;2024-03-02T13:57:05;13.25;;;1.80;;
72493;SDS011;60520;49.182;-0.348;2024-03-02T13:59:32;9.52;;;1.50;;
72493;SDS011;60520;49.182;-0.348;2024-03-02T14:02:01;6.63;;;1.55;;
72493;SDS011;60520;49.182;-0.348;2024-03-02T14:04:29;9.27;;;1.60;;
72493;SDS011;60520;49.182;-0.348;2024-03-02T14:06:56;11.63;;;1.88;;
72493;SDS011;60520;49.182;-0.348;2024-03-02T14:09:23;11.18;;;1.75;;
72493;SDS011;60520;49.182;-0.348;2024-03-02T14:11:50;21.25;;;1.77;;
72493;SDS011;60520;49.182;-0.348;2024-03-02T14:14:18;14.52;;;1.92;;
72493;SDS011;60520;49.182;-0.348;2024-03-02T14:16:45;12.75;;;1.63;;
72493;SDS011;60520;49.182;-0.348;2024-03-02T14:19:14;7.18;;;1.60;;
72493;SDS011;60520;49.182;-0.348;2024-03-02T14:21:41;8.85;;;1.70;;
72493;SDS011;60520;49.182;-0.348;2024-03-02T14:24:08;7.63;;;2.00;;
72493;SDS011;60520;49.182;-0.348;2024-03-02T14:26:35;7.53;;;1.75;;
72493;SDS011;60520;49.182;-0.348;2024-03-02T14:29:03;11.50;;;1.42;;
72493;SDS011;60520;49.182;-0.348;2024-03-02T14:31:30;7.65;;;1.42;;
72493;SDS011;60520;49.182;-0.348;2024-03-02T14:33:57;9.13;;;1.63;;
72493;SDS011;60520;49.182;-0.348;2024-03-02T14:36:25;10.90;;;1.70;;
72493;SDS011;60520;49.182;-0.348;2024-03-02T14:38:53;6.93;;;1.88;;